createdAt,value
2022-10-22T00:01:24.724Z,12.26
2022-10-22T00:03:33.125Z,12.19
2022-10-22T00:05:41.291Z,12.14
2022-10-22T00:07:51.982Z,12.11
2022-10-22T00:09:59.839Z,12.11
2022-10-22T00:12:10.813Z,12.15
2022-10-22T00:14:18.942Z,12.09
2022-10-22T00:16:27.273Z,12.02
2022-10-22T00:18:35.042Z,12.06
2022-10-22T00:20:43.568Z,11.99
2022-10-22T00:22:53.954Z,11.93
2022-10-22T00:25:01.808Z,11.92
2022-10-22T00:27:10.380Z,11.94
2022-10-22T00:29:19.069Z,11.90
2022-10-22T00:31:26.983Z,11.88
2022-10-22T00:33:35.598Z,11.90
2022-10-22T00:35:43.862Z,11.90
2022-10-22T00:37:54.381Z,11.89
2022-10-22T00:40:02.535Z,11.86
2022-10-22T00:42:10.541Z,11.89
2022-10-22T00:44:49.728Z,11.84
2022-10-22T00:46:57.697Z,11.83
2022-10-22T00:49:07.407Z,11.82
2022-10-22T00:51:15.508Z,11.88
2022-10-22T00:53:30.156Z,11.86
2022-10-22T00:55:38.829Z,11.82
2022-10-22T00:57:46.972Z,11.87
2022-10-22T00:59:54.804Z,11.89
2022-10-22T01:02:02.808Z,11.91
2022-10-22T01:04:10.567Z,11.92
2022-10-22T01:06:27.191Z,11.90
2022-10-22T01:08:47.022Z,11.92
2022-10-22T01:11:08.075Z,11.93
2022-10-22T01:13:25.228Z,11.96
2022-10-22T01:15:40.336Z,11.96
2022-10-22T01:17:57.363Z,11.94
2022-10-22T01:20:16.737Z,11.92
2022-10-22T01:22:32.764Z,11.92
2022-10-22T01:25:07.583Z,11.96
2022-10-22T01:27:28.053Z,11.90
2022-10-22T01:29:43.949Z,11.96
2022-10-22T01:31:57.286Z,11.91
2022-10-22T01:34:06.738Z,11.88
2022-10-22T01:36:16.537Z,11.92
2022-10-22T01:38:27.593Z,11.89
2022-10-22T01:40:37.393Z,11.85
2022-10-22T01:42:45.493Z,11.87
2022-10-22T01:44:56.127Z,11.83
2022-10-22T01:47:11.606Z,11.79
2022-10-22T01:49:30.089Z,11.79
2022-10-22T01:51:52.504Z,11.75
2022-10-22T01:54:06.158Z,11.74
2022-10-22T01:56:31.148Z,11.75
2022-10-22T01:58:45.502Z,11.76
2022-10-22T02:01:06.607Z,11.76
2022-10-22T02:03:22.760Z,11.84
2022-10-22T02:05:37.878Z,11.76
2022-10-22T02:07:51.867Z,11.74
2022-10-22T02:10:02.744Z,11.75
2022-10-22T02:12:12.516Z,11.81
2022-10-22T02:14:22.279Z,11.76
2022-10-22T02:16:37.591Z,11.75
2022-10-22T02:18:48.560Z,11.73
2022-10-22T02:20:57.774Z,11.87
2022-10-22T02:23:06.511Z,11.74
2022-10-22T02:25:15.118Z,11.73
2022-10-22T02:27:27.922Z,11.82
2022-10-22T02:29:42.639Z,11.72
2022-10-22T02:31:56.841Z,11.68
2022-10-22T02:34:10.341Z,11.75
2022-10-22T02:36:19.676Z,11.68
2022-10-22T02:38:28.577Z,11.61
2022-10-22T02:40:36.886Z,11.60
2022-10-22T02:42:46.143Z,11.63
2022-10-22T02:44:53.832Z,11.63
2022-10-22T02:47:04.596Z,11.55
2022-10-22T02:49:12.668Z,11.66
2022-10-22T02:51:20.575Z,11.66
2022-10-22T02:53:28.796Z,11.69
2022-10-22T02:55:36.537Z,11.65
2022-10-22T02:57:44.746Z,11.56
2022-10-22T02:59:52.627Z,11.52
2022-10-22T03:02:00.726Z,11.54
2022-10-22T03:04:11.492Z,11.52
2022-10-22T03:06:20.357Z,11.48
2022-10-22T03:08:28.599Z,11.48
2022-10-22T03:10:36.603Z,11.54
2022-10-22T03:12:44.676Z,11.55
2022-10-22T03:14:52.394Z,11.55
2022-10-22T03:17:00.433Z,11.51
2022-10-22T03:19:11.073Z,11.54
2022-10-22T03:21:28.092Z,11.47
2022-10-22T03:23:36.379Z,11.45
2022-10-22T03:25:46.643Z,11.41
2022-10-22T03:27:56.988Z,11.45
2022-10-22T03:30:05.206Z,11.47
2022-10-22T03:32:13.093Z,11.50
2022-10-22T03:34:23.759Z,11.56
2022-10-22T03:36:31.757Z,11.50
2022-10-22T03:38:43.311Z,11.51
2022-10-22T03:40:51.765Z,11.50
2022-10-22T03:43:00.216Z,11.52
2022-10-22T03:45:09.568Z,11.55
2022-10-22T03:47:17.612Z,11.47
2022-10-22T03:49:28.077Z,11.44
2022-10-22T03:51:36.051Z,11.46
2022-10-22T03:53:43.821Z,11.54
2022-10-22T03:55:51.949Z,11.57
2022-10-22T03:58:00.133Z,11.54
2022-10-22T04:00:09.565Z,11.57
2022-10-22T04:02:19.637Z,11.58
2022-10-22T04:04:30.196Z,11.56
2022-10-22T04:06:38.144Z,11.50
2022-10-22T04:08:48.301Z,11.50
2022-10-22T04:10:56.005Z,11.45
2022-10-22T04:13:04.156Z,11.44
2022-10-22T04:15:12.768Z,11.39
2022-10-22T04:17:20.727Z,11.36
2022-10-22T04:19:31.435Z,11.37
2022-10-22T04:21:39.442Z,11.33
2022-10-22T04:23:52.275Z,11.33
2022-10-22T04:26:04.340Z,11.29
2022-10-22T04:28:12.977Z,11.23
2022-10-22T04:30:20.921Z,11.17
2022-10-22T04:32:29.183Z,11.24
2022-10-22T04:34:40.924Z,11.35
2022-10-22T04:36:50.520Z,11.36
2022-10-22T04:39:00.362Z,11.38
2022-10-22T04:41:12.843Z,11.34
2022-10-22T04:43:20.913Z,11.39
2022-10-22T04:45:29.058Z,11.40
2022-10-22T04:47:37.336Z,11.33
2022-10-22T04:49:47.935Z,11.33
2022-10-22T04:51:56.344Z,11.32
2022-10-22T04:54:04.403Z,11.21
2022-10-22T04:56:16.746Z,11.21
2022-10-22T04:58:24.899Z,11.17
2022-10-22T05:00:33.071Z,11.21
2022-10-22T05:02:44.719Z,11.34
2022-10-22T05:04:55.525Z,11.24
2022-10-22T05:07:03.767Z,11.23
2022-10-22T05:09:16.631Z,11.26
2022-10-22T05:11:28.933Z,11.29
2022-10-22T05:13:36.983Z,11.36
2022-10-22T05:15:44.880Z,11.33
2022-10-22T05:17:52.716Z,11.24
2022-10-22T05:20:03.594Z,11.24
2022-10-22T05:22:11.614Z,11.19
2022-10-22T05:24:21.528Z,11.15
2022-10-22T05:26:30.618Z,11.10
2022-10-22T05:28:39.227Z,11.06
2022-10-22T05:30:56.172Z,11.07
2022-10-22T05:33:05.327Z,11.08
2022-10-22T05:35:15.963Z,11.11
2022-10-22T05:37:23.984Z,11.09
2022-10-22T05:39:32.410Z,11.05
2022-10-22T05:41:40.562Z,11.11
2022-10-22T05:43:49.298Z,11.11
2022-10-22T05:45:57.199Z,11.16
2022-10-22T05:48:05.230Z,11.17
2022-10-22T05:50:15.576Z,11.17
2022-10-22T05:52:23.597Z,11.13
2022-10-22T05:54:31.582Z,11.20
2022-10-22T05:56:39.626Z,11.16
2022-10-22T05:58:48.679Z,11.21
2022-10-22T06:00:56.758Z,11.30
2022-10-22T06:03:04.861Z,11.42
2022-10-22T06:05:15.396Z,11.46
2022-10-22T06:07:23.191Z,11.55
2022-10-22T06:09:34.438Z,11.54
2022-10-22T06:11:42.551Z,11.52
2022-10-22T06:13:51.269Z,11.67
2022-10-22T06:15:59.785Z,11.64
2022-10-22T06:18:09.657Z,11.67
2022-10-22T06:20:20.695Z,11.65
2022-10-22T06:22:28.467Z,11.66
2022-10-22T06:24:36.337Z,11.64
2022-10-22T06:26:45.692Z,11.65
2022-10-22T06:28:54.422Z,11.63
2022-10-22T06:31:03.466Z,11.67
2022-10-22T06:33:11.273Z,11.74
2022-10-22T06:35:22.043Z,11.63
2022-10-22T06:37:30.318Z,11.60
2022-10-22T06:39:38.265Z,11.65
2022-10-22T06:41:47.000Z,11.64
2022-10-22T06:43:58.610Z,11.68
2022-10-22T06:46:09.814Z,11.65
2022-10-22T06:48:17.643Z,11.64
2022-10-22T06:50:28.030Z,11.64
2022-10-22T06:52:35.697Z,11.69
2022-10-22T06:54:43.531Z,11.77
2022-10-22T06:56:51.733Z,11.79
2022-10-22T06:59:01.361Z,11.83
2022-10-22T07:01:11.911Z,11.84
2022-10-22T07:03:20.540Z,11.86
2022-10-22T07:05:31.108Z,11.94
2022-10-22T07:07:38.938Z,12.00
2022-10-22T07:09:50.609Z,11.98
2022-10-22T07:11:59.727Z,12.09
2022-10-22T07:14:07.484Z,12.20
2022-10-22T07:16:16.641Z,12.27
2022-10-22T07:18:25.224Z,12.39
2022-10-22T07:20:35.717Z,12.21
2022-10-22T07:22:43.827Z,12.27
2022-10-22T07:24:51.912Z,12.35
2022-10-22T07:27:00.024Z,12.21
2022-10-22T07:29:09.803Z,12.30
2022-10-22T07:31:19.300Z,12.30
2022-10-22T07:33:27.505Z,12.42
2022-10-22T07:35:39.609Z,12.33
2022-10-22T07:37:47.634Z,12.41
2022-10-22T07:39:55.426Z,12.40
2022-10-22T07:42:03.112Z,12.43
2022-10-22T07:44:10.997Z,12.52
2022-10-22T07:46:18.699Z,12.65
2022-10-22T07:48:27.398Z,12.77
2022-10-22T07:50:37.740Z,12.82
2022-10-22T07:52:45.575Z,12.75
2022-10-22T07:54:53.365Z,12.67
2022-10-22T07:57:01.695Z,12.89
2022-10-22T07:59:09.800Z,13.08
2022-10-22T08:01:17.924Z,13.16
2022-10-22T08:03:25.687Z,13.10
2022-10-22T08:05:33.428Z,13.18
2022-10-22T08:07:43.926Z,13.21
2022-10-22T08:09:52.229Z,13.24
2022-10-22T08:12:00.061Z,13.33
2022-10-22T08:14:08.130Z,13.36
2022-10-22T08:16:16.952Z,13.71
2022-10-22T08:18:24.786Z,13.54
2022-10-22T08:20:32.772Z,13.79
2022-10-22T08:22:43.243Z,14.02
2022-10-22T08:24:51.543Z,14.18
2022-10-22T08:26:59.625Z,14.41
2022-10-22T08:29:07.505Z,14.57
2022-10-22T08:31:15.910Z,14.68
2022-10-22T08:33:24.148Z,14.78
2022-10-22T08:35:32.324Z,14.51
2022-10-22T08:37:40.584Z,14.55
2022-10-22T08:39:51.469Z,14.82
2022-10-22T08:42:09.212Z,14.66
2022-10-22T08:44:43.917Z,14.65
2022-10-22T08:47:24.435Z,14.80
2022-10-22T08:49:38.486Z,14.71
2022-10-22T08:51:49.447Z,15.06
2022-10-22T08:54:20.573Z,15.35
2022-10-22T08:56:33.292Z,15.84
2022-10-22T08:58:46.238Z,16.66
2022-10-22T09:01:01.877Z,16.91
2022-10-22T09:03:30.386Z,18.38
2022-10-22T09:05:49.390Z,19.69
2022-10-22T09:07:58.756Z,20.86
2022-10-22T09:10:07.125Z,22.03
2022-10-22T09:12:20.596Z,23.68
2022-10-22T09:14:30.028Z,24.77
2022-10-22T09:16:45.854Z,25.50
2022-10-22T09:19:04.722Z,26.20
2022-10-22T09:21:23.553Z,26.45
2022-10-22T09:23:39.203Z,27.47
2022-10-22T09:25:49.257Z,26.32
2022-10-22T09:28:01.430Z,27.66
2022-10-22T09:30:14.675Z,27.50
2022-10-22T09:32:23.203Z,27.46
2022-10-22T09:34:31.819Z,28.51
2022-10-22T09:36:41.352Z,28.06
2022-10-22T09:38:52.112Z,28.16
2022-10-22T09:41:04.063Z,28.35
2022-10-22T09:43:16.815Z,28.90
2022-10-22T09:45:27.761Z,28.98
2022-10-22T09:47:43.546Z,28.99
2022-10-22T09:50:10.413Z,28.90
2022-10-22T09:52:30.389Z,28.66
2022-10-22T09:54:43.144Z,28.04
2022-10-22T09:56:55.923Z,27.18
2022-10-22T09:59:07.303Z,27.20
2022-10-22T10:01:31.093Z,27.33
2022-10-22T10:03:38.995Z,27.72
2022-10-22T10:05:51.361Z,27.59
2022-10-22T10:08:01.845Z,26.31
2022-10-22T10:10:22.569Z,26.78
2022-10-22T10:12:43.801Z,26.35
2022-10-22T10:15:09.854Z,26.88
2022-10-22T10:17:31.467Z,26.18
2022-10-22T10:19:51.804Z,25.18
2022-10-22T10:22:13.778Z,25.73
2022-10-22T10:24:31.788Z,26.07
2022-10-22T10:26:47.771Z,25.28
2022-10-22T10:29:09.988Z,25.62
2022-10-22T10:31:37.848Z,25.34
2022-10-22T10:33:59.983Z,24.96
2022-10-22T10:36:15.457Z,24.48
2022-10-22T10:38:42.278Z,23.96
2022-10-22T10:40:54.261Z,23.04
2022-10-22T10:43:09.673Z,21.99
2022-10-22T10:45:23.100Z,20.72
2022-10-22T10:48:04.397Z,20.27
2022-10-22T10:50:23.306Z,19.91
2022-10-22T10:52:39.504Z,19.39
2022-10-22T10:54:54.816Z,19.33
2022-10-22T10:57:10.229Z,19.13
2022-10-22T10:59:28.422Z,19.08
2022-10-22T11:01:45.044Z,19.00
2022-10-22T11:04:33.104Z,18.93
2022-10-22T11:06:42.674Z,18.84
2022-10-22T11:08:57.263Z,18.55
2022-10-22T11:11:09.241Z,18.57
2022-10-22T11:13:24.173Z,18.48
2022-10-22T11:15:35.669Z,18.64
2022-10-22T11:17:49.039Z,18.77
2022-10-22T11:20:05.535Z,19.09
2022-10-22T11:22:24.614Z,19.40
2022-10-22T11:24:43.173Z,19.62
2022-10-22T11:26:59.473Z,19.87
2022-10-22T11:29:10.220Z,19.99
2022-10-22T11:31:20.736Z,19.95
2022-10-22T11:33:36.500Z,19.67
2022-10-22T11:35:50.314Z,19.37
2022-10-22T11:38:01.947Z,19.29
2022-10-22T11:40:17.187Z,19.00
2022-10-22T11:42:32.940Z,18.93
2022-10-22T11:47:23.266Z,18.97
2022-10-22T11:49:46.645Z,19.09
2022-10-22T11:52:24.905Z,18.76
2022-10-22T11:54:42.881Z,18.99
2022-10-22T11:56:55.754Z,19.28
2022-10-22T11:59:03.516Z,19.19
2022-10-22T12:01:28.498Z,19.34
2022-10-22T12:03:44.589Z,19.51
2022-10-22T12:06:07.072Z,19.70
2022-10-22T12:08:27.934Z,19.67
2022-10-22T12:10:41.046Z,19.81
2022-10-22T12:12:58.916Z,19.93
2022-10-22T12:15:28.232Z,19.80
2022-10-22T12:17:36.156Z,19.92
2022-10-22T12:19:50.543Z,19.98
2022-10-22T12:22:02.904Z,19.87
2022-10-22T12:24:17.407Z,19.92
2022-10-22T12:29:02.456Z,20.11
2022-10-22T12:31:19.144Z,20.07
2022-10-22T12:33:28.307Z,20.03
2022-10-22T12:35:44.364Z,20.01
2022-10-22T12:37:53.924Z,19.92
2022-10-22T12:40:04.355Z,19.99
2022-10-22T12:42:17.503Z,19.97
2022-10-22T12:44:25.373Z,19.98
2022-10-22T12:46:36.512Z,20.15
2022-10-22T12:48:46.629Z,20.29
2022-10-22T12:50:56.321Z,20.39
2022-10-22T12:53:04.343Z,20.26
2022-10-22T12:55:19.231Z,20.01
2022-10-22T12:57:28.328Z,19.71
2022-10-22T12:59:38.471Z,19.49
2022-10-22T13:01:47.425Z,19.45
2022-10-22T13:04:08.464Z,19.27
2022-10-22T13:06:25.736Z,19.35
2022-10-22T13:08:37.235Z,19.36
2022-10-22T13:10:55.004Z,19.24
2022-10-22T13:13:03.422Z,19.38
2022-10-22T13:15:37.587Z,19.45
2022-10-22T13:17:45.567Z,19.33
2022-10-22T13:20:05.450Z,19.35
2022-10-22T13:22:31.227Z,19.42
2022-10-22T13:24:51.620Z,19.41
2022-10-22T13:27:02.122Z,19.51
2022-10-22T13:29:15.005Z,19.45
2022-10-22T13:31:26.762Z,19.37
2022-10-22T13:33:37.476Z,19.17
2022-10-22T13:35:45.273Z,19.17
2022-10-22T13:37:53.166Z,19.23
2022-10-22T13:40:01.509Z,19.21
2022-10-22T13:42:16.878Z,18.87
2022-10-22T13:44:24.952Z,18.94
2022-10-22T13:46:34.008Z,18.94
2022-10-22T13:48:44.480Z,18.95
2022-10-22T13:50:52.868Z,18.72
2022-10-22T13:53:01.981Z,18.61
2022-10-22T13:55:17.377Z,18.42
2022-10-22T13:57:29.108Z,18.30
2022-10-22T13:59:37.610Z,18.19
2022-10-22T14:01:48.169Z,18.20
2022-10-22T14:03:59.366Z,18.29
2022-10-22T14:06:16.329Z,18.29
2022-10-22T14:08:27.403Z,18.35
2022-10-22T14:10:35.889Z,18.24
2022-10-22T14:12:52.281Z,18.29
2022-10-22T14:15:01.687Z,18.36
2022-10-22T14:17:16.738Z,18.43
2022-10-22T14:19:26.964Z,18.44
2022-10-22T14:21:40.664Z,18.42
2022-10-22T14:23:51.770Z,18.43
2022-10-22T14:26:00.758Z,18.47
2022-10-22T14:28:12.419Z,18.48
2022-10-22T14:30:22.705Z,18.41
2022-10-22T14:32:32.028Z,18.28
2022-10-22T14:34:39.887Z,18.25
2022-10-22T14:36:50.723Z,18.23
2022-10-22T14:38:58.739Z,18.20
2022-10-22T14:41:17.553Z,18.17
2022-10-22T14:43:31.284Z,18.17
2022-10-22T14:45:39.237Z,18.18
2022-10-22T14:47:46.985Z,18.12
2022-10-22T14:49:54.701Z,18.15
2022-10-22T14:52:02.522Z,18.11
2022-10-22T14:54:11.620Z,18.14
2022-10-22T14:56:21.695Z,17.97
2022-10-22T14:58:32.136Z,17.91
2022-10-22T15:00:43.264Z,17.93
2022-10-22T15:02:51.591Z,17.87
2022-10-22T15:04:59.422Z,17.85
2022-10-22T15:07:07.247Z,17.82
2022-10-22T15:09:15.231Z,17.81
2022-10-22T15:11:23.364Z,17.66
2022-10-22T15:13:35.693Z,17.55
2022-10-22T15:15:43.893Z,17.51
2022-10-22T15:17:51.888Z,17.45
2022-10-22T15:20:01.257Z,17.39
2022-10-22T15:22:09.303Z,17.34
2022-10-22T15:24:17.168Z,17.26
2022-10-22T15:26:24.977Z,17.26
2022-10-22T15:28:35.480Z,17.29
2022-10-22T15:30:43.650Z,17.28
2022-10-22T15:32:51.560Z,17.22
2022-10-22T15:34:59.872Z,17.15
2022-10-22T15:37:10.493Z,17.08
2022-10-22T15:39:18.553Z,16.95
2022-10-22T15:41:26.327Z,16.86
2022-10-22T15:43:37.420Z,17.01
2022-10-22T15:45:45.180Z,16.93
2022-10-22T15:47:53.456Z,16.75
2022-10-22T15:50:01.161Z,16.56
2022-10-22T15:52:09.868Z,16.39
2022-10-22T15:54:21.365Z,16.24
2022-10-22T15:56:31.201Z,16.03
2022-10-22T15:58:41.554Z,15.86
2022-10-22T16:00:49.491Z,15.70
2022-10-22T16:03:00.398Z,15.68
2022-10-22T16:05:09.203Z,15.56
2022-10-22T16:07:19.763Z,15.44
2022-10-22T16:09:30.765Z,15.29
2022-10-22T16:11:39.765Z,15.16
2022-10-22T16:13:50.267Z,15.05
2022-10-22T16:15:58.534Z,14.93
2022-10-22T16:18:06.634Z,14.83
2022-10-22T16:20:14.589Z,14.85
2022-10-22T16:22:22.607Z,14.76
2022-10-22T16:24:30.609Z,14.62
2022-10-22T16:26:38.888Z,14.52
2022-10-22T16:28:51.446Z,14.44
2022-10-22T16:30:59.380Z,14.33
2022-10-22T16:33:09.180Z,14.29
2022-10-22T16:35:17.474Z,14.27
2022-10-22T16:37:25.955Z,14.24
2022-10-22T16:39:33.949Z,14.15
2022-10-22T16:41:41.999Z,14.13
2022-10-22T16:43:55.094Z,14.13
2022-10-22T16:46:03.229Z,14.16
2022-10-22T16:48:12.842Z,14.10
2022-10-22T16:50:21.087Z,14.05
2022-10-22T16:52:28.839Z,13.96
2022-10-22T16:54:46.914Z,13.93
2022-10-22T16:56:55.248Z,13.86
2022-10-22T16:59:06.038Z,13.83
2022-10-22T17:01:17.758Z,13.80
2022-10-22T17:03:27.641Z,13.71
2022-10-22T17:05:39.009Z,13.68
2022-10-22T17:07:47.076Z,13.62
2022-10-22T17:09:56.028Z,13.66
2022-10-22T17:12:04.811Z,13.65
2022-10-22T17:14:15.505Z,13.68
2022-10-22T17:16:26.958Z,13.67
2022-10-22T17:18:35.722Z,13.70
2022-10-22T17:20:45.252Z,13.84
2022-10-22T17:22:53.111Z,13.89
2022-10-22T17:25:12.310Z,14.07
2022-10-22T17:27:20.078Z,14.16
2022-10-22T17:29:30.626Z,14.16
2022-10-22T17:31:40.549Z,14.18
2022-10-22T17:33:51.230Z,14.15
2022-10-22T17:35:59.376Z,14.07
2022-10-22T17:38:07.340Z,14.08
2022-10-22T17:40:18.451Z,14.06
2022-10-22T17:42:26.172Z,14.00
2022-10-22T17:44:42.081Z,14.06
2022-10-22T17:46:49.855Z,14.10
2022-10-22T17:48:59.622Z,14.11
2022-10-22T17:51:09.747Z,14.19
2022-10-22T17:53:17.562Z,14.19
2022-10-22T17:55:25.789Z,14.09
2022-10-22T17:57:33.727Z,14.10
2022-10-22T17:59:44.353Z,14.07
2022-10-22T18:01:55.786Z,14.00
2022-10-22T18:04:09.249Z,13.97
2022-10-22T18:06:17.780Z,13.95
2022-10-22T18:08:26.756Z,13.88
2022-10-22T18:10:34.921Z,13.88
2022-10-22T18:12:43.042Z,13.77
2022-10-22T18:14:53.666Z,13.65
2022-10-22T18:17:04.344Z,13.64
2022-10-22T18:19:14.317Z,13.51
2022-10-22T18:21:23.175Z,13.47
2022-10-22T18:23:31.369Z,13.44
2022-10-22T18:25:42.755Z,13.41
2022-10-22T18:27:50.983Z,13.33
2022-10-22T18:30:01.514Z,13.26
2022-10-22T18:32:13.099Z,13.20
2022-10-22T18:34:23.910Z,13.10
2022-10-22T18:36:32.063Z,13.06
2022-10-22T18:38:40.994Z,12.96
2022-10-22T18:40:49.534Z,12.80
2022-10-22T18:42:57.740Z,12.76
2022-10-22T18:45:12.070Z,12.75
2022-10-22T18:47:20.226Z,12.74
2022-10-22T18:49:32.515Z,12.69
2022-10-22T18:51:40.633Z,12.69
2022-10-22T18:53:59.151Z,12.65
2022-10-22T18:56:21.091Z,12.62
2022-10-22T18:58:33.627Z,12.58
2022-10-22T19:00:44.987Z,12.63
2022-10-22T19:02:53.126Z,12.74
2022-10-22T19:05:00.984Z,12.76
2022-10-22T19:09:37.311Z,12.80
2022-10-22T19:11:47.003Z,12.78
2022-10-22T19:13:55.290Z,12.80
2022-10-22T19:16:09.348Z,12.75
2022-10-22T19:18:17.784Z,12.67
2022-10-22T19:20:25.454Z,12.69
2022-10-22T19:22:33.583Z,12.82
2022-10-22T19:24:41.745Z,12.86
2022-10-22T19:26:51.467Z,12.95
2022-10-22T19:29:01.485Z,12.99
2022-10-22T19:31:14.396Z,12.87
2022-10-22T19:33:22.118Z,12.80
2022-10-22T19:35:30.119Z,12.71
2022-10-22T19:37:38.713Z,12.64
2022-10-22T19:39:47.284Z,12.63
2022-10-22T19:41:55.353Z,12.64
2022-10-22T19:44:03.812Z,12.65
2022-10-22T19:46:15.498Z,12.59
2022-10-22T19:48:23.335Z,12.58
2022-10-22T19:50:31.016Z,12.57
2022-10-22T19:52:39.467Z,12.59
2022-10-22T19:54:47.836Z,12.64
2022-10-22T19:56:56.322Z,12.62
2022-10-22T19:59:05.188Z,12.58
2022-10-22T20:01:17.804Z,12.54
2022-10-22T20:03:25.686Z,12.57
2022-10-22T20:05:33.794Z,12.60
2022-10-22T20:07:41.977Z,12.62
2022-10-22T20:09:50.033Z,12.60
2022-10-22T20:11:58.200Z,12.65
2022-10-22T20:14:06.660Z,12.72
2022-10-22T20:16:18.459Z,12.67
2022-10-22T20:18:26.473Z,12.72
2022-10-22T20:20:34.233Z,12.75
2022-10-22T20:22:43.615Z,12.68
2022-10-22T20:24:52.964Z,12.67
2022-10-22T20:27:01.104Z,12.64
2022-10-22T20:29:09.557Z,12.68
2022-10-22T20:31:24.248Z,12.60
2022-10-22T20:33:32.318Z,12.64
2022-10-22T20:35:41.008Z,12.68
2022-10-22T20:37:49.009Z,12.65
2022-10-22T20:39:57.007Z,12.73
2022-10-22T20:42:04.923Z,12.73
2022-10-22T20:44:17.207Z,12.67
2022-10-22T20:46:29.722Z,12.67
2022-10-22T20:48:37.880Z,12.68
2022-10-22T20:50:45.682Z,12.74
2022-10-22T20:52:53.615Z,12.67
2022-10-22T20:55:01.524Z,12.73
2022-10-22T20:57:09.431Z,12.59
2022-10-22T20:59:18.060Z,12.55
2022-10-22T21:01:28.707Z,12.49
2022-10-22T21:03:36.386Z,12.47
2022-10-22T21:05:46.921Z,12.44
2022-10-22T21:07:54.719Z,12.56
2022-10-22T21:10:02.653Z,12.57
2022-10-22T21:12:10.438Z,12.63
2022-10-22T21:14:20.232Z,12.65
2022-10-22T21:16:31.184Z,12.64
2022-10-22T21:18:39.525Z,12.59
2022-10-22T21:20:47.914Z,12.48
2022-10-22T21:22:55.778Z,12.50
2022-10-22T21:25:06.268Z,12.50
2022-10-22T21:27:14.743Z,12.39
2022-10-22T21:29:23.269Z,12.35
2022-10-22T21:31:34.328Z,12.32
2022-10-22T21:33:43.301Z,12.39
2022-10-22T21:35:55.557Z,12.51
2022-10-22T21:38:05.250Z,12.44
2022-10-22T21:40:15.002Z,12.37
2022-10-22T21:42:22.735Z,12.27
2022-10-22T21:44:31.158Z,12.22
2022-10-22T21:46:42.138Z,12.18
2022-10-22T21:48:51.200Z,12.16
2022-10-22T21:50:59.427Z,12.15
2022-10-22T21:53:07.098Z,12.09
2022-10-22T21:55:15.100Z,12.00
2022-10-22T21:57:23.379Z,12.02
2022-10-22T21:59:32.475Z,12.03
2022-10-22T22:01:42.930Z,12.04
2022-10-22T22:03:52.436Z,12.00
2022-10-22T22:06:01.806Z,11.99
2022-10-22T22:08:10.011Z,12.02
2022-10-22T22:10:18.158Z,11.96
2022-10-22T22:12:26.399Z,12.01
2022-10-22T22:14:34.520Z,12.03
2022-10-22T22:16:44.912Z,11.97
2022-10-22T22:18:53.056Z,11.87
2022-10-22T22:21:02.557Z,11.87
2022-10-22T22:23:14.475Z,11.74
2022-10-22T22:25:23.057Z,11.71
2022-10-22T22:27:31.307Z,11.80
2022-10-22T22:29:39.076Z,11.80
2022-10-22T22:31:49.531Z,11.89
2022-10-22T22:34:01.928Z,11.92
2022-10-22T22:36:10.357Z,11.82
2022-10-22T22:38:18.289Z,11.82
2022-10-22T22:40:28.262Z,11.86
2022-10-22T22:42:38.015Z,11.85
2022-10-22T22:44:45.812Z,11.72
2022-10-22T22:46:57.622Z,11.66
2022-10-22T22:49:05.699Z,11.68
2022-10-22T22:51:14.391Z,11.58
2022-10-22T22:53:22.793Z,11.62
2022-10-22T22:55:32.034Z,11.56
2022-10-22T22:57:40.537Z,11.49
2022-10-22T22:59:48.608Z,11.52
2022-10-22T23:01:59.054Z,11.53
2022-10-22T23:04:08.899Z,11.60
2022-10-22T23:06:17.519Z,11.54
2022-10-22T23:08:25.508Z,11.49
2022-10-22T23:10:33.555Z,11.50
2022-10-22T23:12:41.988Z,11.49
2022-10-22T23:14:52.899Z,11.47
2022-10-22T23:17:03.783Z,11.53
2022-10-22T23:19:11.490Z,11.54
2022-10-22T23:21:21.822Z,11.53
2022-10-22T23:23:31.037Z,11.49
2022-10-22T23:25:38.787Z,11.48
2022-10-22T23:27:46.597Z,11.45
2022-10-22T23:29:54.597Z,11.50
2022-10-22T23:32:07.660Z,11.48
2022-10-22T23:36:45.631Z,11.59
2022-10-22T23:38:54.391Z,11.58
2022-10-22T23:41:05.619Z,11.58
2022-10-22T23:43:13.657Z,11.66
2022-10-22T23:45:21.383Z,11.58
2022-10-22T23:47:32.149Z,11.52
2022-10-22T23:49:40.023Z,11.42
2022-10-22T23:51:48.193Z,11.33
2022-10-22T23:54:01.257Z,11.28
2022-10-22T23:56:11.804Z,11.28
2022-10-22T23:58:19.835Z,11.18
